| Date | Time | Temp. (oF) | Dew Point (oF) | Rel. Hum. (%) | Press. (in.) | Wind Dir. | Wind Speed (mph) | Hourly Rainfall (in.) |
|
|---|---|---|---|---|---|---|---|---|---|
| 1 | 04/07 | 00:00 | 44 | 17 | 35 | 30.11 | NNE | 5 | 0.00 |
| 2 | 04/06 | 23:00 | 45 | 15 | 31 | 30.10 | NE | 10 | 0.00 |
| 3 | 04/06 | 22:00 | 47 | 18 | 32 | 30.08 | ENE | 9 | 0.00 |
| 4 | 04/06 | 21:00 | 50 | 19 | 30 | 30.04 | N | 14 | 0.00 |
| 5 | 04/06 | 20:00 | 52 | 19 | 28 | 30.00 | ENE | 10 | 0.00 |
| 6 | miss | miss | miss | miss | miss | miss | miss | miss | |
| 7 | 04/06 | 09:42 | 53 | 20 | 28 | 29.99 | NE | 9 | 0.00 |
| 8 | miss | miss | miss | miss | miss | miss | miss | miss | |
| 9 | 04/06 | 09:42 | 53 | 20 | 28 | 29.99 | NE | 9 | 0.00 |
| 10 | miss | miss | miss | miss | miss | miss | miss | miss | |
| 11 | 04/06 | 09:42 | 53 | 20 | 28 | 29.99 | NE | 9 | 0.00 |
| 12 | miss | miss | miss | miss | miss | miss | miss | miss | |
| 13 | 04/06 | 09:42 | 53 | 20 | 28 | 29.99 | NE | 9 | 0.00 |
| 14 | miss | miss | miss | miss | miss | miss | miss | miss | |
| 15 | 04/06 | 09:42 | 53 | 20 | 28 | 29.99 | NE | 9 | 0.00 |
| 16 | miss | miss | miss | miss | miss | miss | miss | miss | |
| 17 | 04/06 | 19:40 | 53 | 20 | 28 | 29.99 | NNE | 16 | 0.00 |
| 18 | miss | miss | miss | miss | miss | miss | miss | miss | |
| 19 | 04/06 | 19:38 | 53 | 19 | 27 | 29.99 | N | 10 | 0.00 |
| 20 | miss | miss | miss | miss | miss | miss | miss | miss | |
| 21 | 04/06 | 19:36 | 53 | 19 | 27 | 29.99 | NE | 10 | 0.00 |
| 22 | miss | miss | miss | miss | miss | miss | miss | miss | |
| 23 | 04/06 | 19:34 | 53 | 20 | 28 | 29.98 | N | 9 | 0.00 |
| 24 | miss | miss | miss | miss | miss | miss | miss | miss | |
| 25 | 04/06 | 19:32 | 53 | 20 | 28 | 29.98 | NW | 5 | 0.00 |
| 26 | miss | miss | miss | miss | miss | miss | miss | miss | |
| 27 | 04/06 | 19:32 | 53 | 20 | 28 | 29.98 | NW | 5 | 0.00 |
| 28 | miss | miss | miss | miss | miss | miss | miss | miss | |
| 29 | 04/06 | 19:32 | 53 | 20 | 28 | 29.98 | NW | 5 | 0.00 |
| 30 | 04/06 | 19:00 | 55 | 20 | 26 | 29.97 | N | 11 | 0.00 |
| 31 | 04/06 | 18:00 | 56 | 21 | 26 | 29.94 | N | 12 | 0.00 |
| 32 | 04/06 | 17:00 | 57 | 23 | 28 | 29.94 | NNE | 7 | 0.00 |
| 33 | 04/06 | 16:00 | 56 | 23 | 29 | 29.94 | NE | 15 | 0.00 |
| 34 | 04/06 | 15:00 | 55 | 25 | 32 | 29.98 | NNE | 9 | 0.00 |
| 35 | 04/06 | 14:00 | 53 | 26 | 36 | 30.00 | NNE | 9 | 0.00 |
| 36 | 04/06 | 13:00 | 51 | 23 | 34 | 30.01 | ENE | 11 | 0.00 |
| 37 | 04/06 | 12:00 | 50 | 27 | 41 | 30.03 | NNE | 12 | 0.00 |
| 38 | 04/06 | 11:00 | 47 | 26 | 45 | 30.06 | N | 6 | 0.00 |
| 39 | 04/06 | 10:00 | 44 | 27 | 52 | 30.06 | N | 4 | 0.00 |
| 40 | 04/06 | 09:00 | 41 | 26 | 55 | 30.06 | NNE | 9 | 0.00 |
| 41 | 04/06 | 08:00 | 36 | 26 | 67 | 30.06 | NNW | 6 | 0.00 |
| 42 | 04/06 | 07:00 | 33 | 25 | 73 | 30.03 | N | 2 | 0.00 |
| 43 | 04/06 | 06:00 | 32 | 25 | 77 | 30.02 | NW | 0 | 0.00 |
| 44 | 04/06 | 05:00 | 36 | 25 | 66 | 30.02 | N | 3 | 0.00 |
| 45 | 04/06 | 04:00 | 36 | 24 | 64 | 30.01 | NNW | 4 | 0.00 |
| 46 | 04/06 | 03:00 | 38 | 25 | 60 | 30.00 | NNE | 6 | 0.00 |
| 47 | 04/06 | 02:00 | 39 | 26 | 61 | 30.01 | NNE | 5 | 0.00 |
| 48 | 04/06 | 01:00 | 41 | 27 | 59 | 29.98 | NE | 5 | 0.00 |
| 49 | 04/06 | 00:00 | 44 | 29 | 56 | 29.95 | NE | 7 | 0.00 |
| 50 | 04/05 | 23:00 | 46 | 28 | 50 | 29.93 | ENE | 9 | 0.00 |
| 51 | 04/05 | 22:00 | 48 | 29 | 48 | 29.91 | NE | 6 | 0.00 |
| 52 | 04/05 | 21:00 | 50 | 29 | 45 | 29.88 | NW | 0 | 0.00 |
| 53 | 04/05 | 20:00 | 52 | 27 | 39 | 29.86 | NNE | 2 | 0.00 |
| 54 | 04/05 | 19:00 | 54 | 30 | 40 | 29.83 | NNE | 4 | 0.00 |
| 55 | 04/05 | 18:00 | 55 | 29 | 38 | 29.82 | WNW | 7 | 0.00 |
| 56 | 04/05 | 17:00 | 57 | 30 | 36 | 29.81 | NNE | 5 | 0.00 |
| 57 | 04/05 | 16:00 | 57 | 32 | 39 | 29.81 | WSW | 2 | 0.00 |
| 58 | 04/05 | 15:00 | 57 | 31 | 38 | 29.84 | N | 8 | 0.00 |
| 59 | 04/05 | 14:00 | 56 | 34 | 45 | 29.85 | W | 6 | 0.00 |
| 60 | 04/05 | 13:00 | 54 | 33 | 45 | 29.87 | N | 7 | 0.00 |
| 61 | 04/05 | 12:00 | 51 | 30 | 46 | 29.88 | E | 8 | 0.00 |
| 62 | 04/05 | 11:00 | 50 | 31 | 49 | 29.90 | N | 8 | 0.00 |
| 63 | 04/05 | 10:00 | 46 | 28 | 51 | 29.90 | NE | 8 | 0.00 |
| 64 | 04/05 | 09:00 | 45 | 28 | 52 | 29.90 | NE | 4 | 0.00 |
| 65 | 04/05 | 08:00 | 39 | 33 | 81 | 29.88 | SW | 3 | 0.00 |
| 66 | 04/05 | 07:00 | 37 | 30 | 76 | 29.86 | N | 0 | 0.00 |
| 67 | 04/05 | 06:00 | 39 | 27 | 63 | 29.83 | WSW | 0 | 0.00 |
| 68 | 04/05 | 05:00 | 42 | 28 | 58 | 29.82 | NNE | 3 | 0.00 |
| 69 | 04/05 | 04:00 | 42 | 27 | 56 | 29.81 | NNE | 2 | 0.00 |
| 70 | 04/05 | 03:00 | 44 | 26 | 51 | 29.80 | NE | 1 | 0.00 |
| 71 | 04/05 | 02:00 | 46 | 28 | 50 | 29.80 | NE | 9 | 0.00 |
| 72 | 04/05 | 01:00 | 48 | 29 | 49 | 29.80 | NNE | 6 | 0.00 |
| 73 | 04/05 | 00:00 | 50 | 30 | 47 | 29.78 | NNE | 6 | 0.00 |